createdAt,value
2019-06-20T00:01:38.261Z,21.80
2019-06-20T00:04:06.643Z,21.75
2019-06-20T00:06:35.035Z,21.71
2019-06-20T00:09:04.709Z,21.66
2019-06-20T00:11:33.094Z,21.65
2019-06-20T00:14:01.481Z,21.64
2019-06-20T00:16:29.875Z,21.64
2019-06-20T00:18:58.255Z,21.64
2019-06-20T00:21:26.655Z,21.66
2019-06-20T00:23:55.075Z,21.65
2019-06-20T00:26:23.435Z,21.64
2019-06-20T00:28:51.832Z,21.64
2019-06-20T00:31:20.215Z,21.62
2019-06-20T00:33:48.615Z,21.58
2019-06-20T00:36:16.999Z,21.55
2019-06-20T00:38:45.379Z,21.53
2019-06-20T00:41:13.765Z,21.49
2019-06-20T00:43:42.147Z,21.45
2019-06-20T00:46:10.545Z,21.42
2019-06-20T00:48:38.927Z,21.39
2019-06-20T00:51:07.310Z,21.37
2019-06-20T00:53:35.690Z,21.32
2019-06-20T00:56:05.659Z,21.28
2019-06-20T00:58:34.046Z,21.22
2019-06-20T01:01:02.440Z,21.23
2019-06-20T01:03:30.830Z,21.23
2019-06-20T01:05:59.205Z,21.23
2019-06-20T01:08:27.591Z,21.25
2019-06-20T01:10:55.981Z,21.26
2019-06-20T01:13:33.433Z,21.26
2019-06-20T01:15:54.501Z,21.18
2019-06-20T01:18:22.889Z,21.12
2019-06-20T01:20:51.356Z,21.11
2019-06-20T01:23:19.765Z,21.12
2019-06-20T01:25:48.800Z,21.14
2019-06-20T01:28:17.186Z,21.11
2019-06-20T01:30:46.185Z,21.12
2019-06-20T01:33:14.570Z,21.15
2019-06-20T01:35:42.975Z,21.18
2019-06-20T01:38:11.363Z,21.22
2019-06-20T01:40:39.768Z,21.23
2019-06-20T01:43:08.153Z,21.20
2019-06-20T01:45:36.537Z,21.16
2019-06-20T01:48:04.927Z,21.12
2019-06-20T01:50:33.307Z,21.10
2019-06-20T01:53:01.843Z,21.07
2019-06-20T01:55:30.242Z,21.06
2019-06-20T01:57:58.653Z,21.05
2019-06-20T02:00:33.290Z,21.05
2019-06-20T02:03:01.894Z,21.03
2019-06-20T02:05:30.359Z,21.04
2019-06-20T02:07:58.720Z,21.05
2019-06-20T02:10:27.079Z,21.03
2019-06-20T02:12:55.466Z,21.00
2019-06-20T02:15:23.994Z,20.92
2019-06-20T02:17:52.408Z,20.86
2019-06-20T02:20:51.885Z,20.79
2019-06-20T02:23:20.896Z,20.70
2019-06-20T02:25:49.289Z,20.63
2019-06-20T02:28:17.840Z,20.57
2019-06-20T02:30:46.764Z,20.49
2019-06-20T02:33:15.161Z,20.39
2019-06-20T02:35:43.580Z,20.35
2019-06-20T02:38:11.936Z,20.30
2019-06-20T02:40:40.678Z,20.22
2019-06-20T02:43:09.116Z,20.11
2019-06-20T02:45:37.843Z,20.06
2019-06-20T02:48:06.676Z,19.99
2019-06-20T02:50:35.192Z,19.99
2019-06-20T02:53:04.910Z,19.99
2019-06-20T02:55:33.367Z,19.96
2019-06-20T02:58:01.776Z,19.96
2019-06-20T03:00:42.346Z,19.95
2019-06-20T03:03:10.736Z,19.94
2019-06-20T03:05:39.868Z,19.93
2019-06-20T03:08:08.251Z,19.93
2019-06-20T03:10:36.651Z,19.94
2019-06-20T03:13:05.035Z,19.91
2019-06-20T03:15:33.426Z,19.91
2019-06-20T03:18:01.812Z,19.94
2019-06-20T03:20:30.201Z,19.96
2019-06-20T03:22:58.590Z,19.97
2019-06-20T03:25:26.974Z,19.98
2019-06-20T03:27:55.368Z,19.93
2019-06-20T03:30:23.933Z,19.89
2019-06-20T03:32:52.317Z,19.94
2019-06-20T03:35:20.698Z,19.97
2019-06-20T03:37:50.281Z,19.99
2019-06-20T03:40:18.815Z,20.01
2019-06-20T03:42:47.199Z,19.88
2019-06-20T03:45:15.932Z,20.09
2019-06-20T03:47:44.313Z,20.12
2019-06-20T03:50:13.636Z,20.13
2019-06-20T03:52:42.028Z,20.08
2019-06-20T03:55:11.461Z,20.02
2019-06-20T03:57:39.844Z,20.01
2019-06-20T04:00:10.971Z,19.94
2019-06-20T04:02:39.436Z,19.87
2019-06-20T04:05:08.159Z,19.80
2019-06-20T04:07:36.542Z,19.65
2019-06-20T04:10:06.460Z,19.57
2019-06-20T04:12:34.844Z,19.27
2019-06-20T04:15:17.885Z,18.82
2019-06-20T04:17:33.622Z,18.82
2019-06-20T04:20:02.013Z,18.71
2019-06-20T04:22:30.392Z,18.71
2019-06-20T04:24:58.785Z,18.68
2019-06-20T04:27:27.179Z,18.66
2019-06-20T04:29:55.602Z,18.63
2019-06-20T04:32:23.959Z,18.61
2019-06-20T04:34:52.349Z,18.58
2019-06-20T04:37:20.727Z,18.58
2019-06-20T04:39:49.131Z,18.52
2019-06-20T04:42:18.783Z,18.52
2019-06-20T04:44:47.387Z,18.56
2019-06-20T04:47:16.649Z,18.64
2019-06-20T04:49:45.104Z,18.74
2019-06-20T04:52:13.509Z,18.83
2019-06-20T04:54:41.881Z,18.90
2019-06-20T04:57:10.268Z,18.95
2019-06-20T04:59:38.670Z,18.87
2019-06-20T05:02:07.082Z,19.10
2019-06-20T05:04:35.485Z,19.18
2019-06-20T05:07:13.157Z,19.27
2019-06-20T05:09:41.547Z,19.36
2019-06-20T05:12:09.932Z,19.59
2019-06-20T05:14:38.327Z,19.59
2019-06-20T05:17:07.337Z,19.70
2019-06-20T05:19:35.801Z,19.85
2019-06-20T05:22:04.427Z,19.96
2019-06-20T05:24:32.838Z,19.98
2019-06-20T05:27:01.223Z,19.91
2019-06-20T05:29:29.620Z,19.81
2019-06-20T05:31:58.033Z,19.76
2019-06-20T05:34:26.403Z,19.70
2019-06-20T05:36:54.797Z,19.72
2019-06-20T05:39:23.190Z,19.78
2019-06-20T05:41:51.575Z,19.81
2019-06-20T05:44:19.963Z,19.83
2019-06-20T05:46:48.349Z,19.82
2019-06-20T05:49:16.736Z,19.80
2019-06-20T05:51:45.155Z,19.78
2019-06-20T05:54:13.509Z,19.78
2019-06-20T05:56:41.902Z,19.84
2019-06-20T05:59:10.296Z,19.89
2019-06-20T06:01:38.813Z,19.97
2019-06-20T06:04:07.182Z,20.04
2019-06-20T06:06:35.566Z,20.06
2019-06-20T06:09:05.719Z,20.08
2019-06-20T06:11:34.148Z,20.12
2019-06-20T06:14:02.534Z,20.15
2019-06-20T06:16:30.925Z,20.17
2019-06-20T06:18:59.304Z,20.18
2019-06-20T06:21:27.758Z,20.26
2019-06-20T06:23:56.168Z,20.42
2019-06-20T06:26:24.609Z,20.53
2019-06-20T06:28:53.256Z,20.56
2019-06-20T06:31:21.657Z,20.58
2019-06-20T06:33:50.028Z,20.55
2019-06-20T06:36:18.409Z,20.57
2019-06-20T06:38:46.800Z,20.61
2019-06-20T06:41:15.191Z,20.62
2019-06-20T06:43:43.569Z,20.63
2019-06-20T06:46:11.985Z,20.67
2019-06-20T06:48:40.368Z,20.74
2019-06-20T06:51:08.761Z,20.81
2019-06-20T06:53:37.161Z,20.88
2019-06-20T06:56:05.618Z,20.99
2019-06-20T06:58:34.001Z,21.02
2019-06-20T07:01:02.478Z,20.99
2019-06-20T07:03:30.963Z,20.95
2019-06-20T07:05:59.416Z,20.92
2019-06-20T07:08:27.801Z,20.90
2019-06-20T07:10:56.182Z,20.91
2019-06-20T07:13:24.581Z,20.89
2019-06-20T07:15:53.049Z,20.87
2019-06-20T07:18:21.507Z,20.86
2019-06-20T07:20:49.974Z,20.83
2019-06-20T07:23:18.360Z,20.87
2019-06-20T07:25:46.791Z,20.91
2019-06-20T07:28:15.177Z,21.06
2019-06-20T07:30:44.412Z,21.13
2019-06-20T07:33:12.793Z,21.17
2019-06-20T07:35:41.991Z,21.14
2019-06-20T07:38:10.440Z,21.11
2019-06-20T07:40:38.824Z,21.12
2019-06-20T07:43:07.219Z,21.16
2019-06-20T07:45:35.602Z,21.31
2019-06-20T07:48:04.057Z,21.49
2019-06-20T07:50:32.445Z,21.74
2019-06-20T07:53:02.810Z,21.87
2019-06-20T07:55:30.983Z,21.93
2019-06-20T07:57:59.511Z,21.94
2019-06-20T08:00:29.178Z,21.97
2019-06-20T08:02:57.563Z,21.99
2019-06-20T08:05:25.959Z,22.04
2019-06-20T08:07:54.335Z,22.11
2019-06-20T08:10:23.217Z,22.25
2019-06-20T08:12:51.614Z,22.40
2019-06-20T08:15:20.473Z,22.41
2019-06-20T08:17:48.890Z,22.41
2019-06-20T08:20:17.751Z,22.42
2019-06-20T08:22:46.123Z,22.40
2019-06-20T08:25:16.743Z,22.37
2019-06-20T08:27:52.015Z,22.38
2019-06-20T08:30:22.982Z,22.34
2019-06-20T08:32:51.613Z,22.27
2019-06-20T08:35:22.557Z,22.24
2019-06-20T08:37:51.759Z,22.27
2019-06-20T08:40:20.415Z,22.31
2019-06-20T08:42:48.820Z,22.35
2019-06-20T08:45:19.043Z,22.41
2019-06-20T08:47:47.434Z,22.50
2019-06-20T08:50:17.560Z,22.61
2019-06-20T08:52:45.980Z,22.72
2019-06-20T08:55:15.638Z,22.80
2019-06-20T08:57:44.104Z,22.85
2019-06-20T09:00:13.944Z,22.88
2019-06-20T09:02:42.511Z,22.94
2019-06-20T09:05:11.542Z,23.05
2019-06-20T09:07:41.805Z,23.15
2019-06-20T09:10:12.220Z,23.16
2019-06-20T09:12:40.683Z,23.09
2019-06-20T09:15:11.108Z,22.98
2019-06-20T09:17:39.567Z,22.92
2019-06-20T09:20:12.505Z,22.88
2019-06-20T09:22:40.941Z,22.85
2019-06-20T09:25:09.827Z,22.86
2019-06-20T09:27:38.283Z,22.88
2019-06-20T09:30:11.258Z,22.90
2019-06-20T09:32:39.712Z,22.93
2019-06-20T09:35:09.032Z,22.94
2019-06-20T09:37:37.950Z,22.96
2019-06-20T09:40:09.471Z,22.98
2019-06-20T09:42:37.939Z,23.08
2019-06-20T09:45:12.142Z,23.16
2019-06-20T09:47:40.683Z,23.20
2019-06-20T09:50:10.310Z,23.26
2019-06-20T09:52:39.111Z,23.31
2019-06-20T09:55:08.149Z,23.34
2019-06-20T09:57:38.317Z,23.37
2019-06-20T10:00:10.928Z,23.40
2019-06-20T10:02:40.181Z,23.39
2019-06-20T10:05:10.132Z,23.36
2019-06-20T10:07:38.522Z,23.38
2019-06-20T10:10:11.617Z,23.38
2019-06-20T10:12:40.087Z,23.38
2019-06-20T10:15:22.980Z,23.26
2019-06-20T10:17:52.062Z,23.44
2019-06-20T10:20:22.693Z,23.48
2019-06-20T10:22:51.086Z,23.54
2019-06-20T10:25:19.530Z,23.53
2019-06-20T10:27:49.359Z,23.53
2019-06-20T10:30:20.504Z,23.50
2019-06-20T10:32:49.228Z,23.55
2019-06-20T10:35:17.894Z,23.55
2019-06-20T10:37:47.205Z,23.51
2019-06-20T10:40:17.697Z,23.49
2019-06-20T10:42:46.128Z,23.46
2019-06-20T10:45:15.624Z,23.54
2019-06-20T10:47:45.742Z,23.63
2019-06-20T10:50:15.909Z,23.76
2019-06-20T10:52:45.260Z,23.90
2019-06-20T10:55:13.799Z,24.04
2019-06-20T10:57:42.928Z,24.15
2019-06-20T11:00:26.785Z,24.23
2019-06-20T11:02:44.919Z,24.30
2019-06-20T11:05:13.525Z,24.35
2019-06-20T11:07:42.539Z,24.38
2019-06-20T11:10:14.291Z,24.40
2019-06-20T11:12:48.137Z,24.37
2019-06-20T11:15:13.339Z,24.37
2019-06-20T11:17:42.049Z,24.32
2019-06-20T11:20:12.463Z,24.30
2019-06-20T11:22:41.625Z,24.36
2019-06-20T11:25:10.532Z,24.48
2019-06-20T11:27:38.935Z,24.53
2019-06-20T11:30:16.521Z,24.58
2019-06-20T11:32:45.779Z,24.60
2019-06-20T11:35:14.462Z,24.58
2019-06-20T11:37:42.953Z,24.61
2019-06-20T11:40:12.042Z,24.68
2019-06-20T11:42:40.425Z,24.73
2019-06-20T11:45:09.379Z,24.72
2019-06-20T11:47:38.270Z,24.77
2019-06-20T11:50:07.259Z,24.87
2019-06-20T11:52:40.575Z,24.96
2019-06-20T11:55:09.365Z,25.02
2019-06-20T11:57:37.752Z,25.07
2019-06-20T12:00:07.189Z,25.16
2019-06-20T12:02:35.727Z,25.14
2019-06-20T12:05:07.459Z,25.29
2019-06-20T12:07:35.840Z,25.18
2019-06-20T12:10:09.273Z,25.10
2019-06-20T12:12:39.052Z,25.09
2019-06-20T12:15:09.508Z,25.01
2019-06-20T12:17:39.344Z,25.23
2019-06-20T12:20:08.537Z,25.28
2019-06-20T12:22:39.399Z,25.32
2019-06-20T12:25:07.891Z,25.39
2019-06-20T12:27:36.278Z,25.47
2019-06-20T12:30:07.707Z,25.57
2019-06-20T12:32:36.113Z,25.61
2019-06-20T12:35:05.647Z,25.56
2019-06-20T12:37:34.051Z,25.49
2019-06-20T12:40:02.434Z,25.44
2019-06-20T12:42:30.838Z,25.38
2019-06-20T12:44:59.203Z,25.35
2019-06-20T12:47:27.599Z,25.35
2019-06-20T12:49:56.016Z,25.33
2019-06-20T12:52:24.401Z,25.30
2019-06-20T12:54:52.796Z,25.26
2019-06-20T12:57:21.245Z,25.16
2019-06-20T12:59:49.631Z,25.11
2019-06-20T13:02:18.030Z,25.09
2019-06-20T13:04:46.409Z,25.09
2019-06-20T13:07:14.829Z,25.03
2019-06-20T13:09:44.031Z,25.00
2019-06-20T13:12:12.476Z,25.05
2019-06-20T13:14:40.996Z,25.06
2019-06-20T13:17:09.333Z,25.08
2019-06-20T13:19:38.765Z,25.10
2019-06-20T13:22:07.822Z,25.11
2019-06-20T13:24:36.252Z,25.14
2019-06-20T13:27:04.669Z,25.16
2019-06-20T13:29:33.062Z,25.19
2019-06-20T13:32:04.336Z,25.18
2019-06-20T13:34:31.569Z,25.16
2019-06-20T13:36:59.957Z,25.17
2019-06-20T13:39:28.360Z,25.13
2019-06-20T13:41:56.753Z,25.04
2019-06-20T13:44:25.187Z,24.90
2019-06-20T13:46:53.626Z,24.78
2019-06-20T13:49:22.030Z,24.67
2019-06-20T13:51:50.422Z,24.57
2019-06-20T13:54:18.917Z,24.50
2019-06-20T13:56:47.591Z,24.29
2019-06-20T13:59:16.056Z,24.36
2019-06-20T14:01:46.137Z,24.32
2019-06-20T14:04:14.556Z,24.27
2019-06-20T14:06:43.879Z,24.25
2019-06-20T14:09:13.050Z,24.29
2019-06-20T14:11:42.991Z,24.41
2019-06-20T14:14:11.598Z,24.54
2019-06-20T14:16:41.262Z,24.60
2019-06-20T14:19:10.938Z,24.62
2019-06-20T14:21:39.332Z,24.61
2019-06-20T14:24:07.724Z,24.64
2019-06-20T14:26:36.123Z,24.68
2019-06-20T14:29:04.582Z,24.73
2019-06-20T14:31:32.962Z,24.78
2019-06-20T14:34:01.350Z,24.78
2019-06-20T14:36:29.740Z,24.80
2019-06-20T14:38:58.130Z,24.83
2019-06-20T14:41:26.515Z,24.84
2019-06-20T14:43:54.896Z,24.82
2019-06-20T14:46:23.279Z,24.78
2019-06-20T14:48:51.665Z,24.77
2019-06-20T14:51:20.072Z,24.75
2019-06-20T14:53:49.455Z,24.73
2019-06-20T14:56:17.867Z,24.73
2019-06-20T14:58:46.719Z,24.65
2019-06-20T15:01:15.124Z,24.59
2019-06-20T15:03:45.552Z,24.56
2019-06-20T15:06:13.638Z,24.20
2019-06-20T15:08:42.026Z,23.40
2019-06-20T15:11:12.331Z,23.03
2019-06-20T15:13:40.550Z,22.87
2019-06-20T15:16:08.924Z,22.83
2019-06-20T15:18:37.398Z,22.86
2019-06-20T15:21:05.794Z,22.89
2019-06-20T15:23:34.229Z,23.00
2019-06-20T15:26:02.635Z,23.11
2019-06-20T15:28:31.030Z,23.18
2019-06-20T15:30:59.425Z,23.24
2019-06-20T15:33:27.787Z,23.31
2019-06-20T15:35:56.988Z,23.31
2019-06-20T15:38:26.276Z,23.33
2019-06-20T15:40:55.429Z,23.37
2019-06-20T15:43:23.849Z,23.38
2019-06-20T15:45:53.734Z,23.38
2019-06-20T15:48:22.197Z,23.36
2019-06-20T15:50:50.600Z,23.38
2019-06-20T15:53:19.047Z,23.39
2019-06-20T15:55:47.494Z,23.39
2019-06-20T15:58:15.928Z,23.37
2019-06-20T16:00:44.386Z,23.36
2019-06-20T16:03:14.669Z,23.32
2019-06-20T16:05:42.985Z,23.30
2019-06-20T16:08:11.386Z,23.30
2019-06-20T16:10:39.822Z,23.26
2019-06-20T16:13:08.285Z,23.20
2019-06-20T16:15:36.675Z,23.11
2019-06-20T16:18:06.795Z,22.84
2019-06-20T16:20:35.270Z,22.60
2019-06-20T16:23:03.717Z,22.25
2019-06-20T16:25:32.144Z,21.52
2019-06-20T16:28:00.547Z,20.49
2019-06-20T16:30:29.009Z,19.85
2019-06-20T16:32:57.406Z,19.50
2019-06-20T16:35:25.839Z,19.19
2019-06-20T16:37:54.346Z,18.81
2019-06-20T16:40:31.588Z,18.38
2019-06-20T16:42:59.983Z,17.82
2019-06-20T16:45:28.369Z,17.36
2019-06-20T16:47:56.815Z,16.91
2019-06-20T16:50:25.275Z,16.82
2019-06-20T16:52:53.663Z,16.91
2019-06-20T16:55:22.809Z,16.82
2019-06-20T16:57:51.233Z,16.86
2019-06-20T17:00:19.759Z,17.06
2019-06-20T17:02:48.137Z,17.27
2019-06-20T17:05:16.691Z,17.36
2019-06-20T17:07:45.124Z,17.35
2019-06-20T17:10:14.316Z,17.39
2019-06-20T17:12:42.714Z,17.50
2019-06-20T17:15:11.470Z,17.61
2019-06-20T17:17:39.880Z,17.66
2019-06-20T17:20:09.168Z,17.61
2019-06-20T17:22:37.671Z,17.61
2019-06-20T17:25:09.624Z,17.64
2019-06-20T17:27:38.097Z,17.63
2019-06-20T17:30:11.317Z,17.66
2019-06-20T17:32:39.774Z,17.70
2019-06-20T17:35:08.820Z,17.67
2019-06-20T17:37:37.333Z,17.63
2019-06-20T17:40:08.061Z,17.65
2019-06-20T17:42:36.448Z,17.73
2019-06-20T17:45:06.814Z,17.70
2019-06-20T17:47:35.310Z,17.66
2019-06-20T17:50:08.694Z,17.70
2019-06-20T17:52:37.127Z,17.75
2019-06-20T17:55:06.570Z,17.75
2019-06-20T17:57:35.083Z,17.78
2019-06-20T18:00:04.380Z,17.78
2019-06-20T18:02:32.800Z,17.83
2019-06-20T18:05:01.196Z,17.77
2019-06-20T18:07:29.594Z,17.72
2019-06-20T18:09:58.001Z,17.72
2019-06-20T18:12:26.389Z,17.78
2019-06-20T18:14:54.840Z,17.79
2019-06-20T18:17:23.269Z,17.77
2019-06-20T18:19:51.748Z,17.78
2019-06-20T18:22:20.147Z,17.78
2019-06-20T18:24:48.595Z,17.75
2019-06-20T18:27:17.048Z,17.79
2019-06-20T18:29:45.434Z,17.77
2019-06-20T18:32:13.841Z,17.64
2019-06-20T18:34:42.258Z,17.68
2019-06-20T18:37:10.714Z,17.69
2019-06-20T18:39:39.138Z,17.75
2019-06-20T18:42:07.576Z,17.79
2019-06-20T18:44:35.967Z,17.81
2019-06-20T18:47:04.534Z,17.86
2019-06-20T18:49:32.928Z,17.86
2019-06-20T18:52:01.327Z,17.89
2019-06-20T18:54:29.721Z,17.90
2019-06-20T18:56:58.160Z,17.89
2019-06-20T18:59:26.570Z,17.78
2019-06-20T19:01:55.013Z,17.78
2019-06-20T19:04:23.423Z,17.76
2019-06-20T19:06:51.879Z,17.67
2019-06-20T19:09:20.262Z,17.67
2019-06-20T19:11:48.817Z,17.67
2019-06-20T19:14:17.253Z,17.71
2019-06-20T19:16:45.679Z,17.77
2019-06-20T19:19:14.086Z,17.70
2019-06-20T19:21:42.557Z,17.71
2019-06-20T19:24:10.996Z,17.72
2019-06-20T19:26:39.454Z,17.72
2019-06-20T19:29:07.873Z,17.72
2019-06-20T19:31:36.290Z,17.71
2019-06-20T19:34:04.690Z,17.65
2019-06-20T19:36:33.184Z,17.65
2019-06-20T19:39:01.623Z,17.65
2019-06-20T19:41:30.032Z,17.62
2019-06-20T19:43:58.450Z,17.60
2019-06-20T19:46:26.837Z,17.60
2019-06-20T19:48:55.276Z,17.56
2019-06-20T19:51:23.663Z,17.50
2019-06-20T19:53:52.063Z,17.48
2019-06-20T19:56:20.496Z,17.50
2019-06-20T19:58:48.944Z,17.49
2019-06-20T20:01:17.453Z,17.45
2019-06-20T20:03:46.040Z,17.44
2019-06-20T20:06:14.410Z,17.39
2019-06-20T20:08:42.932Z,17.39
2019-06-20T20:11:11.321Z,17.44
2019-06-20T20:13:39.764Z,17.43
2019-06-20T20:16:08.251Z,17.43
2019-06-20T20:18:36.607Z,17.37
2019-06-20T20:21:05.089Z,17.37
2019-06-20T20:23:33.878Z,17.40
2019-06-20T20:26:02.320Z,17.37
2019-06-20T20:28:30.785Z,17.36
2019-06-20T20:30:59.203Z,17.36
2019-06-20T20:33:27.610Z,17.35
2019-06-20T20:35:56.873Z,17.34
2019-06-20T20:38:25.286Z,17.32
2019-06-20T20:40:53.708Z,17.30
2019-06-20T20:43:22.138Z,17.25
2019-06-20T20:45:50.543Z,17.20
2019-06-20T20:48:19.059Z,17.19
2019-06-20T20:50:47.423Z,17.22
2019-06-20T20:53:15.878Z,17.24
2019-06-20T20:55:44.278Z,17.23
2019-06-20T20:58:12.702Z,17.19
2019-06-20T21:01:05.383Z,17.19
2019-06-20T21:03:33.785Z,17.20
2019-06-20T21:06:02.192Z,17.19
2019-06-20T21:08:32.862Z,17.16
2019-06-20T21:11:00.691Z,17.12
2019-06-20T21:13:29.111Z,17.10
2019-06-20T21:15:57.498Z,17.06
2019-06-20T21:18:25.885Z,17.01
2019-06-20T21:20:54.315Z,17.02
2019-06-20T21:23:22.696Z,17.01
2019-06-20T21:25:51.095Z,17.03
2019-06-20T21:28:19.493Z,17.01
2019-06-20T21:30:47.914Z,17.00
2019-06-20T21:33:16.364Z,17.01
2019-06-20T21:35:44.809Z,16.99
2019-06-20T21:38:13.198Z,16.95
2019-06-20T21:40:41.585Z,16.92
2019-06-20T21:43:09.979Z,16.91
2019-06-20T21:45:38.438Z,16.91
2019-06-20T21:48:07.807Z,16.89
2019-06-20T21:50:36.204Z,16.88
2019-06-20T21:53:04.692Z,16.88
2019-06-20T21:55:33.102Z,16.79
2019-06-20T21:58:01.498Z,16.86
2019-06-20T22:00:37.484Z,16.82
2019-06-20T22:03:06.781Z,16.82
2019-06-20T22:05:35.259Z,16.82
2019-06-20T22:08:04.110Z,16.80
2019-06-20T22:10:32.541Z,16.78
2019-06-20T22:13:00.965Z,16.77
2019-06-20T22:15:29.400Z,16.78
2019-06-20T22:17:57.975Z,16.77
2019-06-20T22:20:26.866Z,16.77
2019-06-20T22:22:55.302Z,16.76
2019-06-20T22:25:24.928Z,16.73
2019-06-20T22:27:53.381Z,16.71
2019-06-20T22:30:33.694Z,16.67
2019-06-20T22:33:02.120Z,16.66
2019-06-20T22:35:30.515Z,16.63
2019-06-20T22:37:58.942Z,16.62
2019-06-20T22:40:27.362Z,16.62
2019-06-20T22:42:55.900Z,16.59
2019-06-20T22:45:24.373Z,16.59
2019-06-20T22:47:52.757Z,16.55
2019-06-20T22:50:21.256Z,16.54
2019-06-20T22:52:49.697Z,16.55
2019-06-20T22:55:18.198Z,16.54
2019-06-20T22:57:46.629Z,16.48
2019-06-20T23:00:15.203Z,16.47
2019-06-20T23:02:43.669Z,16.47
2019-06-20T23:05:12.136Z,16.46
2019-06-20T23:07:40.778Z,16.47
2019-06-20T23:10:11.341Z,16.48
2019-06-20T23:12:39.986Z,16.51
2019-06-20T23:15:09.154Z,16.50
2019-06-20T23:17:37.628Z,16.50
2019-06-20T23:20:10.370Z,16.50
2019-06-20T23:22:38.876Z,16.47
2019-06-20T23:25:08.016Z,16.43
2019-06-20T23:27:36.715Z,16.41
2019-06-20T23:30:13.198Z,16.41
2019-06-20T23:32:41.580Z,16.43
2019-06-20T23:35:10.617Z,16.43
2019-06-20T23:37:39.110Z,16.41
2019-06-20T23:40:08.220Z,16.38
2019-06-20T23:42:36.641Z,16.36
2019-06-20T23:45:06.992Z,16.34
2019-06-20T23:47:35.375Z,16.32
2019-06-20T23:50:04.959Z,16.32
2019-06-20T23:52:34.996Z,16.30
2019-06-20T23:55:04.564Z,16.30
2019-06-20T23:57:33.031Z,16.30
